sensor_id;sensor_type;location;lat;lon;timestamp;temperature;humidity
59999;DHT22;45859;51.378;6.736;2023-06-19T00:01:58;22.50;99.90
59999;DHT22;45859;51.378;6.736;2023-06-19T00:04:23;22.40;99.90
59999;DHT22;45859;51.378;6.736;2023-06-19T00:06:49;22.40;99.90
59999;DHT22;45859;51.378;6.736;2023-06-19T00:09:15;22.40;99.90
59999;DHT22;45859;51.378;6.736;2023-06-19T00:11:40;22.30;99.90
59999;DHT22;45859;51.378;6.736;2023-06-19T00:14:06;22.30;99.90
59999;DHT22;45859;51.378;6.736;2023-06-19T00:16:32;22.20;99.90
59999;DHT22;45859;51.378;6.736;2023-06-19T00:18:58;22.20;99.90
59999;DHT22;45859;51.378;6.736;2023-06-19T00:21:24;22.20;99.90
59999;DHT22;45859;51.378;6.736;2023-06-19T00:23:51;22.10;99.90
59999;DHT22;45859;51.378;6.736;2023-06-19T00:26:16;22.10;99.90
59999;DHT22;45859;51.378;6.736;2023-06-19T00:28:42;22.10;99.90
59999;DHT22;45859;51.378;6.736;2023-06-19T00:31:11;22.00;99.90
59999;DHT22;45859;51.378;6.736;2023-06-19T00:33:42;21.90;99.90
59999;DHT22;45859;51.378;6.736;2023-06-19T00:36:11;21.90;99.90
59999;DHT22;45859;51.378;6.736;2023-06-19T00:38:38;21.90;99.90
59999;DHT22;45859;51.378;6.736;2023-06-19T00:41:03;21.90;99.90
59999;DHT22;45859;51.378;6.736;2023-06-19T00:43:30;21.90;99.90
59999;DHT22;45859;51.378;6.736;2023-06-19T00:46:00;21.90;99.90
59999;DHT22;45859;51.378;6.736;2023-06-19T00:48:30;21.90;99.90
59999;DHT22;45859;51.378;6.736;2023-06-19T00:50:56;21.80;99.90
59999;DHT22;45859;51.378;6.736;2023-06-19T00:53:23;21.80;99.90
59999;DHT22;45859;51.378;6.736;2023-06-19T00:55:50;21.70;99.90
59999;DHT22;45859;51.378;6.736;2023-06-19T00:58:17;21.60;99.90
59999;DHT22;45859;51.378;6.736;2023-06-19T01:00:43;21.10;99.90
59999;DHT22;45859;51.378;6.736;2023-06-19T01:03:09;23.20;99.90
59999;DHT22;45859;51.378;6.736;2023-06-19T01:05:34;21.50;99.90
59999;DHT22;45859;51.378;6.736;2023-06-19T01:08:10;21.50;99.90
59999;DHT22;45859;51.378;6.736;2023-06-19T01:10:45;21.50;99.90
59999;DHT22;45859;51.378;6.736;2023-06-19T01:13:37;21.50;99.90
59999;DHT22;45859;51.378;6.736;2023-06-19T01:16:07;21.50;99.90
59999;DHT22;45859;51.378;6.736;2023-06-19T01:18:32;21.40;99.90
59999;DHT22;45859;51.378;6.736;2023-06-19T01:21:12;21.40;99.90
59999;DHT22;45859;51.378;6.736;2023-06-19T01:23:38;21.40;99.90
59999;DHT22;45859;51.378;6.736;2023-06-19T01:26:03;21.30;99.90
59999;DHT22;45859;51.378;6.736;2023-06-19T01:28:29;21.20;99.90
59999;DHT22;45859;51.378;6.736;2023-06-19T01:30:55;21.10;99.90
59999;DHT22;45859;51.378;6.736;2023-06-19T01:33:26;21.10;99.90
59999;DHT22;45859;51.378;6.736;2023-06-19T01:35:52;21.00;99.90
59999;DHT22;45859;51.378;6.736;2023-06-19T01:38:19;20.90;99.90
59999;DHT22;45859;51.378;6.736;2023-06-19T01:40:48;20.80;99.90
59999;DHT22;45859;51.378;6.736;2023-06-19T01:43:15;20.80;99.90
59999;DHT22;45859;51.378;6.736;2023-06-19T01:45:41;20.70;99.90
59999;DHT22;45859;51.378;6.736;2023-06-19T01:48:08;20.70;99.90
59999;DHT22;45859;51.378;6.736;2023-06-19T01:50:33;20.60;99.90
59999;DHT22;45859;51.378;6.736;2023-06-19T01:52:59;20.40;99.90
59999;DHT22;45859;51.378;6.736;2023-06-19T01:55:25;20.40;99.90
59999;DHT22;45859;51.378;6.736;2023-06-19T01:57:51;20.30;99.90
59999;DHT22;45859;51.378;6.736;2023-06-19T02:00:16;20.20;99.90
59999;DHT22;45859;51.378;6.736;2023-06-19T02:02:42;20.10;99.90
59999;DHT22;45859;51.378;6.736;2023-06-19T02:05:08;20.10;99.90
59999;DHT22;45859;51.378;6.736;2023-06-19T02:07:34;20.00;99.90
59999;DHT22;45859;51.378;6.736;2023-06-19T02:10:00;20.00;99.90
59999;DHT22;45859;51.378;6.736;2023-06-19T02:12:28;20.00;99.90
59999;DHT22;45859;51.378;6.736;2023-06-19T02:14:54;20.10;99.90
59999;DHT22;45859;51.378;6.736;2023-06-19T02:17:20;20.10;99.90
59999;DHT22;45859;51.378;6.736;2023-06-19T02:19:45;20.20;99.90
59999;DHT22;45859;51.378;6.736;2023-06-19T02:22:11;20.30;99.90
59999;DHT22;45859;51.378;6.736;2023-06-19T02:24:36;20.40;99.90
59999;DHT22;45859;51.378;6.736;2023-06-19T02:27:02;20.40;99.90
59999;DHT22;45859;51.378;6.736;2023-06-19T02:29:28;20.50;99.90
59999;DHT22;45859;51.378;6.736;2023-06-19T02:31:55;20.60;99.90
59999;DHT22;45859;51.378;6.736;2023-06-19T02:34:21;20.70;99.90
59999;DHT22;45859;51.378;6.736;2023-06-19T02:36:50;20.70;99.90
59999;DHT22;45859;51.378;6.736;2023-06-19T02:39:15;20.80;99.90
59999;DHT22;45859;51.378;6.736;2023-06-19T02:41:41;20.90;99.90
59999;DHT22;45859;51.378;6.736;2023-06-19T02:44:11;20.90;99.90
59999;DHT22;45859;51.378;6.736;2023-06-19T02:46:37;21.00;99.90
59999;DHT22;45859;51.378;6.736;2023-06-19T02:49:03;21.00;99.90
59999;DHT22;45859;51.378;6.736;2023-06-19T02:51:28;21.00;99.90
59999;DHT22;45859;51.378;6.736;2023-06-19T02:53:54;21.10;99.90
59999;DHT22;45859;51.378;6.736;2023-06-19T02:56:20;21.10;99.90
59999;DHT22;45859;51.378;6.736;2023-06-19T02:58:45;21.20;99.90
59999;DHT22;45859;51.378;6.736;2023-06-19T03:01:11;21.20;99.90
59999;DHT22;45859;51.378;6.736;2023-06-19T03:03:37;21.30;99.90
59999;DHT22;45859;51.378;6.736;2023-06-19T03:06:06;21.30;99.90
59999;DHT22;45859;51.378;6.736;2023-06-19T03:08:36;21.40;99.90
59999;DHT22;45859;51.378;6.736;2023-06-19T03:11:02;21.50;99.90
59999;DHT22;45859;51.378;6.736;2023-06-19T03:16:15;21.50;99.90
59999;DHT22;45859;51.378;6.736;2023-06-19T03:18:42;21.50;99.90
59999;DHT22;45859;51.378;6.736;2023-06-19T03:21:10;21.60;99.90
59999;DHT22;45859;51.378;6.736;2023-06-19T03:23:36;21.60;99.90
59999;DHT22;45859;51.378;6.736;2023-06-19T03:26:02;21.60;99.90
59999;DHT22;45859;51.378;6.736;2023-06-19T03:28:28;21.50;99.90
59999;DHT22;45859;51.378;6.736;2023-06-19T03:30:54;21.50;99.90
59999;DHT22;45859;51.378;6.736;2023-06-19T03:33:20;21.50;99.90
59999;DHT22;45859;51.378;6.736;2023-06-19T03:35:45;21.50;99.90
59999;DHT22;45859;51.378;6.736;2023-06-19T03:38:11;21.50;99.90
59999;DHT22;45859;51.378;6.736;2023-06-19T03:40:37;21.40;99.90
59999;DHT22;45859;51.378;6.736;2023-06-19T03:43:02;21.40;99.90
59999;DHT22;45859;51.378;6.736;2023-06-19T03:45:28;21.40;99.90
59999;DHT22;45859;51.378;6.736;2023-06-19T03:47:54;21.30;99.90
59999;DHT22;45859;51.378;6.736;2023-06-19T03:50:19;21.20;99.90
59999;DHT22;45859;51.378;6.736;2023-06-19T03:52:45;21.10;99.90
59999;DHT22;45859;51.378;6.736;2023-06-19T03:55:11;21.10;99.90
59999;DHT22;45859;51.378;6.736;2023-06-19T03:57:36;21.00;99.90
59999;DHT22;45859;51.378;6.736;2023-06-19T04:00:03;21.00;99.90
59999;DHT22;45859;51.378;6.736;2023-06-19T04:02:35;21.00;99.90
59999;DHT22;45859;51.378;6.736;2023-06-19T04:05:01;20.90;99.90
59999;DHT22;45859;51.378;6.736;2023-06-19T04:07:27;20.90;99.90
59999;DHT22;45859;51.378;6.736;2023-06-19T04:09:53;20.80;99.90
59999;DHT22;45859;51.378;6.736;2023-06-19T04:12:18;20.80;99.90
59999;DHT22;45859;51.378;6.736;2023-06-19T04:14:44;20.70;99.90
59999;DHT22;45859;51.378;6.736;2023-06-19T04:17:10;20.70;99.90
59999;DHT22;45859;51.378;6.736;2023-06-19T04:19:35;20.60;99.90
59999;DHT22;45859;51.378;6.736;2023-06-19T04:22:01;20.70;99.90
59999;DHT22;45859;51.378;6.736;2023-06-19T04:24:27;20.60;99.90
59999;DHT22;45859;51.378;6.736;2023-06-19T04:26:52;20.60;99.90
59999;DHT22;45859;51.378;6.736;2023-06-19T04:29:18;20.50;99.90
59999;DHT22;45859;51.378;6.736;2023-06-19T04:31:47;20.50;99.90
59999;DHT22;45859;51.378;6.736;2023-06-19T04:34:15;20.50;99.90
59999;DHT22;45859;51.378;6.736;2023-06-19T04:36:41;20.50;99.90
59999;DHT22;45859;51.378;6.736;2023-06-19T04:39:06;20.40;99.90
59999;DHT22;45859;51.378;6.736;2023-06-19T04:41:32;20.40;99.90
59999;DHT22;45859;51.378;6.736;2023-06-19T04:43:58;20.40;99.90
59999;DHT22;45859;51.378;6.736;2023-06-19T04:46:23;20.40;99.90
59999;DHT22;45859;51.378;6.736;2023-06-19T04:48:49;20.40;99.90
59999;DHT22;45859;51.378;6.736;2023-06-19T04:51:18;20.40;99.90
59999;DHT22;45859;51.378;6.736;2023-06-19T04:53:46;20.30;99.90
59999;DHT22;45859;51.378;6.736;2023-06-19T04:56:12;20.40;99.90
59999;DHT22;45859;51.378;6.736;2023-06-19T04:58:38;20.50;99.90
59999;DHT22;45859;51.378;6.736;2023-06-19T05:01:14;20.50;99.90
59999;DHT22;45859;51.378;6.736;2023-06-19T05:03:40;20.60;99.90
59999;DHT22;45859;51.378;6.736;2023-06-19T05:06:07;20.70;99.90
59999;DHT22;45859;51.378;6.736;2023-06-19T05:08:33;20.90;99.90
59999;DHT22;45859;51.378;6.736;2023-06-19T05:10:58;21.10;99.90
59999;DHT22;45859;51.378;6.736;2023-06-19T05:13:24;21.30;99.90
59999;DHT22;45859;51.378;6.736;2023-06-19T05:15:50;21.50;99.90
59999;DHT22;45859;51.378;6.736;2023-06-19T05:18:16;21.60;99.90
59999;DHT22;45859;51.378;6.736;2023-06-19T05:20:43;21.50;99.90
59999;DHT22;45859;51.378;6.736;2023-06-19T05:23:08;21.30;99.90
59999;DHT22;45859;51.378;6.736;2023-06-19T05:25:34;21.10;99.90
59999;DHT22;45859;51.378;6.736;2023-06-19T05:28:00;21.10;99.90
59999;DHT22;45859;51.378;6.736;2023-06-19T05:30:26;21.20;99.90
59999;DHT22;45859;51.378;6.736;2023-06-19T05:32:51;21.50;99.90
59999;DHT22;45859;51.378;6.736;2023-06-19T05:35:17;21.90;99.90
59999;DHT22;45859;51.378;6.736;2023-06-19T05:37:43;22.00;99.90
59999;DHT22;45859;51.378;6.736;2023-06-19T05:40:10;22.10;99.90
59999;DHT22;45859;51.378;6.736;2023-06-19T05:42:40;21.90;99.90
59999;DHT22;45859;51.378;6.736;2023-06-19T05:45:06;21.60;99.90
59999;DHT22;45859;51.378;6.736;2023-06-19T05:47:32;21.60;99.90
59999;DHT22;45859;51.378;6.736;2023-06-19T05:49:58;21.50;99.90
59999;DHT22;45859;51.378;6.736;2023-06-19T05:52:24;21.50;99.90
59999;DHT22;45859;51.378;6.736;2023-06-19T05:54:50;21.40;99.90
59999;DHT22;45859;51.378;6.736;2023-06-19T05:57:16;21.40;99.90
59999;DHT22;45859;51.378;6.736;2023-06-19T05:59:49;21.40;99.90
59999;DHT22;45859;51.378;6.736;2023-06-19T06:02:17;21.30;99.90
59999;DHT22;45859;51.378;6.736;2023-06-19T06:04:43;21.20;99.90
59999;DHT22;45859;51.378;6.736;2023-06-19T06:07:09;21.40;99.90
59999;DHT22;45859;51.378;6.736;2023-06-19T06:09:34;21.30;99.90
59999;DHT22;45859;51.378;6.736;2023-06-19T06:12:00;21.20;99.90
59999;DHT22;45859;51.378;6.736;2023-06-19T06:14:27;21.20;99.90
59999;DHT22;45859;51.378;6.736;2023-06-19T06:16:53;21.30;99.90
59999;DHT22;45859;51.378;6.736;2023-06-19T06:19:22;21.30;99.90
59999;DHT22;45859;51.378;6.736;2023-06-19T06:21:51;21.30;99.90
59999;DHT22;45859;51.378;6.736;2023-06-19T06:24:17;21.20;99.90
59999;DHT22;45859;51.378;6.736;2023-06-19T06:26:42;21.20;99.90
59999;DHT22;45859;51.378;6.736;2023-06-19T06:29:08;21.20;99.90
59999;DHT22;45859;51.378;6.736;2023-06-19T06:31:37;21.30;99.90
59999;DHT22;45859;51.378;6.736;2023-06-19T06:34:03;21.30;99.90
59999;DHT22;45859;51.378;6.736;2023-06-19T06:36:29;21.30;99.90
59999;DHT22;45859;51.378;6.736;2023-06-19T06:38:55;21.20;99.90
59999;DHT22;45859;51.378;6.736;2023-06-19T06:41:21;21.10;99.90
59999;DHT22;45859;51.378;6.736;2023-06-19T06:43:47;21.00;99.90
59999;DHT22;45859;51.378;6.736;2023-06-19T06:46:13;21.00;99.90
59999;DHT22;45859;51.378;6.736;2023-06-19T06:48:39;21.00;99.90
59999;DHT22;45859;51.378;6.736;2023-06-19T06:51:05;20.90;99.90
59999;DHT22;45859;51.378;6.736;2023-06-19T06:53:31;21.00;99.90
59999;DHT22;45859;51.378;6.736;2023-06-19T06:56:00;21.10;99.90
59999;DHT22;45859;51.378;6.736;2023-06-19T06:58:26;21.10;99.90
59999;DHT22;45859;51.378;6.736;2023-06-19T07:00:52;21.10;99.90
59999;DHT22;45859;51.378;6.736;2023-06-19T07:03:18;21.10;99.90
59999;DHT22;45859;51.378;6.736;2023-06-19T07:05:44;21.00;99.90
59999;DHT22;45859;51.378;6.736;2023-06-19T07:08:10;21.00;99.90
59999;DHT22;45859;51.378;6.736;2023-06-19T07:10:36;21.00;99.90
59999;DHT22;45859;51.378;6.736;2023-06-19T07:13:01;21.00;99.90
59999;DHT22;45859;51.378;6.736;2023-06-19T07:15:27;20.90;99.90
59999;DHT22;45859;51.378;6.736;2023-06-19T07:17:53;21.10;99.90
59999;DHT22;45859;51.378;6.736;2023-06-19T07:20:19;21.20;99.90
59999;DHT22;45859;51.378;6.736;2023-06-19T07:22:44;21.30;99.90
59999;DHT22;45859;51.378;6.736;2023-06-19T07:25:11;22.50;99.90
59999;DHT22;45859;51.378;6.736;2023-06-19T07:27:38;21.40;99.90
59999;DHT22;45859;51.378;6.736;2023-06-19T07:30:06;21.60;99.90
59999;DHT22;45859;51.378;6.736;2023-06-19T07:32:31;21.80;99.90
59999;DHT22;45859;51.378;6.736;2023-06-19T07:34:57;21.80;99.90
59999;DHT22;45859;51.378;6.736;2023-06-19T07:37:23;21.90;99.90
59999;DHT22;45859;51.378;6.736;2023-06-19T07:39:50;21.90;99.90
59999;DHT22;45859;51.378;6.736;2023-06-19T07:42:16;21.70;99.90
59999;DHT22;45859;51.378;6.736;2023-06-19T07:44:42;21.60;99.90
59999;DHT22;45859;51.378;6.736;2023-06-19T07:47:08;21.20;99.90
59999;DHT22;45859;51.378;6.736;2023-06-19T07:49:35;20.80;99.90
59999;DHT22;45859;51.378;6.736;2023-06-19T07:52:01;20.70;99.90
59999;DHT22;45859;51.378;6.736;2023-06-19T07:54:26;20.60;99.90
59999;DHT22;45859;51.378;6.736;2023-06-19T07:56:52;20.70;99.90
59999;DHT22;45859;51.378;6.736;2023-06-19T07:59:19;21.00;99.90
59999;DHT22;45859;51.378;6.736;2023-06-19T08:01:45;21.30;99.90
59999;DHT22;45859;51.378;6.736;2023-06-19T08:04:11;21.60;99.90
59999;DHT22;45859;51.378;6.736;2023-06-19T08:06:37;22.50;99.90
59999;DHT22;45859;51.378;6.736;2023-06-19T08:09:03;23.40;99.90
59999;DHT22;45859;51.378;6.736;2023-06-19T08:11:29;24.20;99.90
59999;DHT22;45859;51.378;6.736;2023-06-19T08:13:55;24.70;99.90
59999;DHT22;45859;51.378;6.736;2023-06-19T08:16:20;25.60;99.90
59999;DHT22;45859;51.378;6.736;2023-06-19T08:18:46;26.10;99.90
59999;DHT22;45859;51.378;6.736;2023-06-19T08:21:13;26.30;99.90
59999;DHT22;45859;51.378;6.736;2023-06-19T08:23:39;26.50;99.90
59999;DHT22;45859;51.378;6.736;2023-06-19T08:26:05;27.00;99.90
59999;DHT22;45859;51.378;6.736;2023-06-19T08:28:32;27.10;99.90
59999;DHT22;45859;51.378;6.736;2023-06-19T08:30:58;26.50;99.90
59999;DHT22;45859;51.378;6.736;2023-06-19T08:33:24;26.10;99.90
59999;DHT22;45859;51.378;6.736;2023-06-19T08:35:49;26.00;99.90
59999;DHT22;45859;51.378;6.736;2023-06-19T08:38:15;26.10;99.90
59999;DHT22;45859;51.378;6.736;2023-06-19T08:40:42;25.30;99.90
59999;DHT22;45859;51.378;6.736;2023-06-19T08:43:11;25.30;99.90
59999;DHT22;45859;51.378;6.736;2023-06-19T08:45:37;25.10;99.90
59999;DHT22;45859;51.378;6.736;2023-06-19T08:48:03;24.80;99.90
59999;DHT22;45859;51.378;6.736;2023-06-19T08:50:33;24.60;99.90
59999;DHT22;45859;51.378;6.736;2023-06-19T08:52:59;24.30;99.90
59999;DHT22;45859;51.378;6.736;2023-06-19T08:55:25;24.50;99.90
59999;DHT22;45859;51.378;6.736;2023-06-19T08:57:51;24.50;99.90
59999;DHT22;45859;51.378;6.736;2023-06-19T09:00:25;24.60;99.90
59999;DHT22;45859;51.378;6.736;2023-06-19T09:02:52;24.70;99.90
59999;DHT22;45859;51.378;6.736;2023-06-19T09:05:23;25.30;99.90
59999;DHT22;45859;51.378;6.736;2023-06-19T09:07:57;25.70;99.90
59999;DHT22;45859;51.378;6.736;2023-06-19T09:10:24;26.20;99.90
59999;DHT22;45859;51.378;6.736;2023-06-19T09:13:00;26.90;99.90
59999;DHT22;45859;51.378;6.736;2023-06-19T09:15:28;27.70;99.90
59999;DHT22;45859;51.378;6.736;2023-06-19T09:18:08;27.70;99.90
59999;DHT22;45859;51.378;6.736;2023-06-19T09:20:37;27.20;99.90
59999;DHT22;45859;51.378;6.736;2023-06-19T09:23:04;26.50;99.90
59999;DHT22;45859;51.378;6.736;2023-06-19T09:25:30;26.50;99.90
59999;DHT22;45859;51.378;6.736;2023-06-19T09:27:57;26.50;99.90
59999;DHT22;45859;51.378;6.736;2023-06-19T09:30:23;26.40;99.90
59999;DHT22;45859;51.378;6.736;2023-06-19T09:32:49;26.40;99.90
59999;DHT22;45859;51.378;6.736;2023-06-19T09:35:15;27.00;99.90
59999;DHT22;45859;51.378;6.736;2023-06-19T09:37:41;27.50;99.90
59999;DHT22;45859;51.378;6.736;2023-06-19T09:40:07;27.90;99.90
59999;DHT22;45859;51.378;6.736;2023-06-19T09:42:41;27.90;99.90
59999;DHT22;45859;51.378;6.736;2023-06-19T09:45:12;28.00;99.90
59999;DHT22;45859;51.378;6.736;2023-06-19T09:47:45;27.90;99.90
59999;DHT22;45859;51.378;6.736;2023-06-19T09:50:13;27.70;99.90
59999;DHT22;45859;51.378;6.736;2023-06-19T09:52:41;27.40;99.90
59999;DHT22;45859;51.378;6.736;2023-06-19T09:55:09;26.90;99.90
59999;DHT22;45859;51.378;6.736;2023-06-19T09:57:38;27.20;99.90
59999;DHT22;45859;51.378;6.736;2023-06-19T10:00:05;27.80;99.90
59999;DHT22;45859;51.378;6.736;2023-06-19T10:02:39;29.00;99.90
59999;DHT22;45859;51.378;6.736;2023-06-19T10:05:05;29.50;99.90
59999;DHT22;45859;51.378;6.736;2023-06-19T10:07:35;29.70;99.90
59999;DHT22;45859;51.378;6.736;2023-06-19T10:12:44;30.40;99.90
59999;DHT22;45859;51.378;6.736;2023-06-19T10:15:10;29.90;99.90
59999;DHT22;45859;51.378;6.736;2023-06-19T10:17:37;29.30;99.90
59999;DHT22;45859;51.378;6.736;2023-06-19T10:20:04;29.00;99.90
59999;DHT22;45859;51.378;6.736;2023-06-19T10:22:31;28.80;99.90
59999;DHT22;45859;51.378;6.736;2023-06-19T10:24:56;28.40;99.90
59999;DHT22;45859;51.378;6.736;2023-06-19T10:27:23;28.40;99.90
59999;DHT22;45859;51.378;6.736;2023-06-19T10:29:53;28.70;99.90
59999;DHT22;45859;51.378;6.736;2023-06-19T10:32:20;28.50;99.90
59999;DHT22;45859;51.378;6.736;2023-06-19T10:34:47;28.50;99.90
59999;DHT22;45859;51.378;6.736;2023-06-19T10:37:15;28.50;99.90
59999;DHT22;45859;51.378;6.736;2023-06-19T10:39:41;28.80;99.90
59999;DHT22;45859;51.378;6.736;2023-06-19T10:42:08;28.70;99.90
59999;DHT22;45859;51.378;6.736;2023-06-19T10:44:34;28.60;99.90
59999;DHT22;45859;51.378;6.736;2023-06-19T10:47:01;28.60;99.90
59999;DHT22;45859;51.378;6.736;2023-06-19T10:49:27;28.60;99.90
59999;DHT22;45859;51.378;6.736;2023-06-19T10:51:52;28.30;99.90
59999;DHT22;45859;51.378;6.736;2023-06-19T10:54:24;28.60;99.90
59999;DHT22;45859;51.378;6.736;2023-06-19T10:56:50;28.80;99.90
59999;DHT22;45859;51.378;6.736;2023-06-19T10:59:17;28.80;99.90
59999;DHT22;45859;51.378;6.736;2023-06-19T11:01:45;28.60;99.90
59999;DHT22;45859;51.378;6.736;2023-06-19T11:04:13;28.30;99.90
59999;DHT22;45859;51.378;6.736;2023-06-19T11:06:40;28.40;99.90
59999;DHT22;45859;51.378;6.736;2023-06-19T11:09:08;28.50;99.90
59999;DHT22;45859;51.378;6.736;2023-06-19T11:11:44;28.80;99.90
59999;DHT22;45859;51.378;6.736;2023-06-19T11:14:12;28.90;99.90
59999;DHT22;45859;51.378;6.736;2023-06-19T11:16:43;29.20;99.90
59999;DHT22;45859;51.378;6.736;2023-06-19T11:19:13;28.90;99.90
59999;DHT22;45859;51.378;6.736;2023-06-19T11:21:39;29.00;99.90
59999;DHT22;45859;51.378;6.736;2023-06-19T11:24:12;28.90;99.90
59999;DHT22;45859;51.378;6.736;2023-06-19T11:26:43;29.00;99.90
59999;DHT22;45859;51.378;6.736;2023-06-19T11:29:29;29.10;99.90
59999;DHT22;45859;51.378;6.736;2023-06-19T11:32:14;29.20;99.90
59999;DHT22;45859;51.378;6.736;2023-06-19T11:34:40;28.90;99.90
59999;DHT22;45859;51.378;6.736;2023-06-19T11:37:16;28.80;99.90
59999;DHT22;45859;51.378;6.736;2023-06-19T11:39:47;28.80;99.90
59999;DHT22;45859;51.378;6.736;2023-06-19T11:42:17;28.60;99.90
59999;DHT22;45859;51.378;6.736;2023-06-19T11:45:03;28.80;99.90
59999;DHT22;45859;51.378;6.736;2023-06-19T11:47:32;29.00;99.90
59999;DHT22;45859;51.378;6.736;2023-06-19T11:49:58;29.10;99.90
59999;DHT22;45859;51.378;6.736;2023-06-19T11:52:25;29.00;99.90
59999;DHT22;45859;51.378;6.736;2023-06-19T11:54:51;29.10;99.90
59999;DHT22;45859;51.378;6.736;2023-06-19T11:57:17;28.80;99.90
59999;DHT22;45859;51.378;6.736;2023-06-19T11:59:43;29.10;99.90
59999;DHT22;45859;51.378;6.736;2023-06-19T12:02:09;28.90;99.90
59999;DHT22;45859;51.378;6.736;2023-06-19T12:04:35;29.00;99.90
59999;DHT22;45859;51.378;6.736;2023-06-19T12:07:01;29.00;99.90
59999;DHT22;45859;51.378;6.736;2023-06-19T12:09:27;29.10;99.90
59999;DHT22;45859;51.378;6.736;2023-06-19T12:11:53;29.20;99.90
59999;DHT22;45859;51.378;6.736;2023-06-19T12:14:19;29.20;99.90
59999;DHT22;45859;51.378;6.736;2023-06-19T12:16:46;29.10;99.90
59999;DHT22;45859;51.378;6.736;2023-06-19T12:19:12;29.00;99.90
59999;DHT22;45859;51.378;6.736;2023-06-19T12:21:38;29.20;99.90
59999;DHT22;45859;51.378;6.736;2023-06-19T12:24:04;29.20;99.90
59999;DHT22;45859;51.378;6.736;2023-06-19T12:26:30;29.00;99.90
59999;DHT22;45859;51.378;6.736;2023-06-19T12:28:56;28.90;99.90
59999;DHT22;45859;51.378;6.736;2023-06-19T12:31:22;28.90;99.90
59999;DHT22;45859;51.378;6.736;2023-06-19T12:33:48;28.90;99.90
59999;DHT22;45859;51.378;6.736;2023-06-19T12:36:17;29.00;99.90
59999;DHT22;45859;51.378;6.736;2023-06-19T12:38:43;29.00;99.90
59999;DHT22;45859;51.378;6.736;2023-06-19T12:41:08;29.00;99.90
59999;DHT22;45859;51.378;6.736;2023-06-19T12:43:34;29.00;99.90
59999;DHT22;45859;51.378;6.736;2023-06-19T12:46:00;29.00;99.90
59999;DHT22;45859;51.378;6.736;2023-06-19T12:48:26;28.80;99.90
59999;DHT22;45859;51.378;6.736;2023-06-19T12:50:52;28.80;99.90
59999;DHT22;45859;51.378;6.736;2023-06-19T12:53:18;28.90;99.90
59999;DHT22;45859;51.378;6.736;2023-06-19T12:55:44;29.00;99.90
59999;DHT22;45859;51.378;6.736;2023-06-19T12:58:10;29.30;99.90
59999;DHT22;45859;51.378;6.736;2023-06-19T13:00:36;29.20;99.90
59999;DHT22;45859;51.378;6.736;2023-06-19T13:03:02;29.20;99.90
59999;DHT22;45859;51.378;6.736;2023-06-19T13:05:28;29.40;99.90
59999;DHT22;45859;51.378;6.736;2023-06-19T13:07:54;29.30;99.90
59999;DHT22;45859;51.378;6.736;2023-06-19T13:10:20;28.90;99.90
59999;DHT22;45859;51.378;6.736;2023-06-19T13:12:46;28.80;99.90
59999;DHT22;45859;51.378;6.736;2023-06-19T13:15:12;28.70;99.90
59999;DHT22;45859;51.378;6.736;2023-06-19T13:17:38;28.40;99.90
59999;DHT22;45859;51.378;6.736;2023-06-19T13:20:04;28.30;99.90
59999;DHT22;45859;51.378;6.736;2023-06-19T13:22:31;28.20;99.90
59999;DHT22;45859;51.378;6.736;2023-06-19T13:24:57;28.20;99.90
59999;DHT22;45859;51.378;6.736;2023-06-19T13:27:23;28.30;99.90
59999;DHT22;45859;51.378;6.736;2023-06-19T13:29:49;28.40;99.90
59999;DHT22;45859;51.378;6.736;2023-06-19T13:32:14;28.30;99.90
59999;DHT22;45859;51.378;6.736;2023-06-19T13:34:40;28.20;99.90
59999;DHT22;45859;51.378;6.736;2023-06-19T13:37:06;28.20;99.90
59999;DHT22;45859;51.378;6.736;2023-06-19T13:39:31;28.10;99.90
59999;DHT22;45859;51.378;6.736;2023-06-19T13:41:57;28.10;99.90
59999;DHT22;45859;51.378;6.736;2023-06-19T13:44:26;28.10;99.90
59999;DHT22;45859;51.378;6.736;2023-06-19T13:46:52;28.10;99.90
59999;DHT22;45859;51.378;6.736;2023-06-19T13:49:19;28.00;99.90
59999;DHT22;45859;51.378;6.736;2023-06-19T13:51:45;28.10;99.90
59999;DHT22;45859;51.378;6.736;2023-06-19T13:54:11;28.10;99.90
59999;DHT22;45859;51.378;6.736;2023-06-19T13:56:39;28.00;99.90
59999;DHT22;45859;51.378;6.736;2023-06-19T13:59:05;27.90;99.90
59999;DHT22;45859;51.378;6.736;2023-06-19T14:01:31;27.90;99.90
59999;DHT22;45859;51.378;6.736;2023-06-19T14:03:57;27.80;99.90
59999;DHT22;45859;51.378;6.736;2023-06-19T14:06:24;27.90;99.90
59999;DHT22;45859;51.378;6.736;2023-06-19T14:08:50;27.90;99.90
59999;DHT22;45859;51.378;6.736;2023-06-19T14:11:17;27.80;99.90
59999;DHT22;45859;51.378;6.736;2023-06-19T14:13:42;27.60;99.90
59999;DHT22;45859;51.378;6.736;2023-06-19T14:16:08;27.60;99.90
59999;DHT22;45859;51.378;6.736;2023-06-19T14:18:34;27.60;99.90
59999;DHT22;45859;51.378;6.736;2023-06-19T14:21:02;27.40;99.90
59999;DHT22;45859;51.378;6.736;2023-06-19T14:23:27;27.30;99.90
59999;DHT22;45859;51.378;6.736;2023-06-19T14:25:53;27.00;99.90
59999;DHT22;45859;51.378;6.736;2023-06-19T14:28:19;26.90;99.90
59999;DHT22;45859;51.378;6.736;2023-06-19T14:30:45;27.00;99.90
59999;DHT22;45859;51.378;6.736;2023-06-19T14:33:10;27.10;99.90
59999;DHT22;45859;51.378;6.736;2023-06-19T14:35:44;27.10;99.90
59999;DHT22;45859;51.378;6.736;2023-06-19T14:38:13;27.20;99.90
59999;DHT22;45859;51.378;6.736;2023-06-19T14:40:43;27.10;99.90
59999;DHT22;45859;51.378;6.736;2023-06-19T14:43:09;27.10;99.90
59999;DHT22;45859;51.378;6.736;2023-06-19T14:45:35;27.00;99.90
59999;DHT22;45859;51.378;6.736;2023-06-19T14:48:02;27.20;99.90
59999;DHT22;45859;51.378;6.736;2023-06-19T14:50:28;27.20;99.90
59999;DHT22;45859;51.378;6.736;2023-06-19T14:52:54;27.20;99.90
59999;DHT22;45859;51.378;6.736;2023-06-19T14:55:19;27.20;99.90
59999;DHT22;45859;51.378;6.736;2023-06-19T14:57:45;27.50;99.90
59999;DHT22;45859;51.378;6.736;2023-06-19T15:00:11;27.50;99.90
59999;DHT22;45859;51.378;6.736;2023-06-19T15:02:37;27.50;99.90
59999;DHT22;45859;51.378;6.736;2023-06-19T15:05:03;27.30;99.90
59999;DHT22;45859;51.378;6.736;2023-06-19T15:07:29;27.40;99.90
59999;DHT22;45859;51.378;6.736;2023-06-19T15:09:54;27.50;99.90
59999;DHT22;45859;51.378;6.736;2023-06-19T15:12:20;27.50;99.90
59999;DHT22;45859;51.378;6.736;2023-06-19T15:14:46;27.60;99.90
59999;DHT22;45859;51.378;6.736;2023-06-19T15:17:11;27.60;99.90
59999;DHT22;45859;51.378;6.736;2023-06-19T15:19:37;27.60;99.90
59999;DHT22;45859;51.378;6.736;2023-06-19T15:22:03;27.50;99.90
59999;DHT22;45859;51.378;6.736;2023-06-19T15:24:28;27.40;99.90
59999;DHT22;45859;51.378;6.736;2023-06-19T15:26:54;27.40;99.90
59999;DHT22;45859;51.378;6.736;2023-06-19T15:29:22;27.40;99.90
59999;DHT22;45859;51.378;6.736;2023-06-19T15:31:48;27.40;99.90
59999;DHT22;45859;51.378;6.736;2023-06-19T15:34:13;27.20;99.90